Tuktoyaktuk Airport
CYUB : now visible

Airfield :











YOU CAN JOIN US ON...

 
LOGIN :

Register | Disclaimer

   EN    FR    IT 

 









Legend :    VFR   Marginal VFR   IFR   Intensive IFR   Very Intensive IFR
Visi :
Ceiling :
>= 8 km
>= 3000ft
5 to 8 km
1000 to 3000 ft
1500m to 5 km
500 to 1000 ft
800 to 1500m
200 to 500 ft
< 800m
< 200 ft
Symbols :   Thunderstorms  Fog  Heavy snow  Heavy precipitations  Wind > 20 kt






- Airport Elevation : 15 ft
- IATA code : YUB


CYUB - Tuktoyaktuk

CURRENT METAR :
  • 281800Z 29018KT 1SM -SN BLSN VV020 M26/M29 A3013 RMK BLSN8 SLP204

EXPIRED METARs :
  • 281722Z 28017G23KT 1SM -SN BLSN OVC029 M26/M29 A3012 RMK BLSN4SC4 SLP201
  • 281700Z 28018G23KT 2SM -SN BLSN OVC036 M27/M30 A3012 RMK SC8 SLP203
  • 281600Z 28016KT 2SM -SN BLSN VV029 M28/M31 A3014 RMK SN8 SLP208

TAF AMD TAF CYUB
Valid from the 28 at 17:00 until the 29 at 03:00 UTC


281736Z 2817/2903 28017G27KT 1SM -SN BLSN OVC025
TEMPO 2817/2822 5SM -SN BLSN OVC050
FM282200 31015G25KT 3SM -SN BLSN OVC040
TEMPO 2822/2901 P6SM -SN OVC060
BECMG 2823/2901 32013KT
FM290100 32013KT P6SM BKN040
TEMPO 2901/2903 P6SM -SN RMK NXT FCST BY 281900Z



MET'MAP, your aeronautical weather chart ! - Copyright ORBIFLY December 2007 - Disclaimer

ORBIFLY MET'MAP TEAM :

Programming & Development : Alexandra Zaïnal
Concept & original design : Baudouin d'Aumeries
Assistance for programming : Marc-Olivier Méhu
Technical & hardware support : Manuel Goepfert

Contact : metmap@orbifly.com




SOURCES & CREDITS :

   NOAA       Earth
Advisory